createdAt,value
2022-09-26T00:00:46.608Z,10.52
2022-09-26T00:03:14.212Z,10.51
2022-09-26T00:05:41.746Z,10.54
2022-09-26T00:08:09.379Z,10.60
2022-09-26T00:10:38.295Z,10.59
2022-09-26T00:13:05.880Z,10.58
2022-09-26T00:15:33.467Z,10.61
2022-09-26T00:18:01.285Z,10.62
2022-09-26T00:20:29.079Z,10.63
2022-09-26T00:22:56.638Z,10.61
2022-09-26T00:25:24.202Z,10.57
2022-09-26T00:27:53.189Z,10.57
2022-09-26T00:30:20.815Z,10.59
2022-09-26T00:32:48.402Z,10.55
2022-09-26T00:35:15.962Z,10.53
2022-09-26T00:37:43.503Z,10.53
2022-09-26T00:40:11.929Z,10.47
2022-09-26T00:42:39.543Z,10.47
2022-09-26T00:45:10.317Z,10.48
2022-09-26T00:47:45.851Z,10.46
2022-09-26T00:50:21.500Z,10.43
2022-09-26T00:52:53.754Z,10.45
2022-09-26T00:55:29.031Z,10.38
2022-09-26T00:58:05.151Z,10.43
2022-09-26T01:00:34.337Z,10.40
2022-09-26T01:03:02.680Z,10.40
2022-09-26T01:05:32.316Z,10.41
2022-09-26T01:08:01.294Z,10.34
2022-09-26T01:10:30.578Z,10.28
2022-09-26T01:13:00.842Z,10.31
2022-09-26T01:15:29.023Z,10.18
2022-09-26T01:17:58.156Z,10.22
2022-09-26T01:20:34.442Z,10.16
2022-09-26T01:23:49.666Z,10.08
2022-09-26T01:26:32.203Z,10.08
2022-09-26T01:29:41.899Z,10.06
2022-09-26T01:32:36.861Z,10.05
2022-09-26T01:35:13.462Z,9.98
2022-09-26T01:37:53.372Z,9.86
2022-09-26T01:40:31.516Z,9.85
2022-09-26T01:43:06.688Z,9.78
2022-09-26T01:45:43.386Z,9.77
2022-09-26T01:48:18.338Z,9.73
2022-09-26T01:50:51.290Z,9.61
2022-09-26T01:53:24.208Z,9.63
2022-09-26T01:55:56.005Z,9.65
2022-09-26T01:58:29.505Z,9.63
2022-09-26T02:01:01.707Z,9.52
2022-09-26T02:03:37.860Z,9.45
2022-09-26T02:06:10.306Z,9.41
2022-09-26T02:08:41.597Z,9.40
2022-09-26T02:11:13.312Z,9.38
2022-09-26T02:13:47.287Z,9.41
2022-09-26T02:16:22.208Z,9.38
2022-09-26T02:18:55.635Z,9.31
2022-09-26T02:21:24.870Z,9.29
2022-09-26T02:23:54.372Z,9.29
2022-09-26T02:26:22.311Z,9.27
2022-09-26T02:28:50.176Z,9.28
2022-09-26T02:31:23.093Z,9.24
2022-09-26T02:33:53.835Z,9.32
2022-09-26T02:36:23.187Z,9.29
2022-09-26T02:38:50.948Z,9.35
2022-09-26T02:41:29.148Z,9.36
2022-09-26T02:44:31.305Z,9.30
2022-09-26T02:47:16.754Z,9.16
2022-09-26T02:50:08.451Z,9.28
2022-09-26T02:52:46.210Z,9.30
2022-09-26T02:55:21.954Z,9.32
2022-09-26T02:58:05.459Z,9.40
2022-09-26T03:00:45.115Z,9.38
2022-09-26T03:03:19.689Z,9.21
2022-09-26T03:05:50.467Z,9.25
2022-09-26T03:08:23.516Z,9.27
2022-09-26T03:10:52.442Z,9.26
2022-09-26T03:13:21.154Z,9.11
2022-09-26T03:15:54.488Z,9.06
2022-09-26T03:18:25.973Z,9.00
2022-09-26T03:20:55.593Z,9.09
2022-09-26T03:23:24.371Z,9.09
2022-09-26T03:26:00.755Z,9.10
2022-09-26T03:28:31.753Z,9.02
2022-09-26T03:31:01.690Z,9.06
2022-09-26T03:33:29.314Z,9.01
2022-09-26T03:36:00.418Z,9.05
2022-09-26T03:38:28.440Z,9.03
2022-09-26T03:40:58.426Z,8.98
2022-09-26T03:43:26.730Z,8.97
2022-09-26T03:45:54.972Z,8.84
2022-09-26T03:48:22.628Z,8.85
2022-09-26T03:50:50.269Z,8.90
2022-09-26T03:53:19.792Z,8.91
2022-09-26T03:55:47.356Z,8.86
2022-09-26T03:58:15.432Z,9.05
2022-09-26T04:00:43.034Z,9.08
2022-09-26T04:03:10.622Z,9.07
2022-09-26T04:05:38.295Z,8.92
2022-09-26T04:08:05.893Z,8.91
2022-09-26T04:10:34.787Z,8.80
2022-09-26T04:13:03.075Z,8.92
2022-09-26T04:15:30.888Z,8.90
2022-09-26T04:17:58.480Z,8.83
2022-09-26T04:20:26.011Z,8.83
2022-09-26T04:22:53.575Z,8.77
2022-09-26T04:25:21.163Z,8.76
2022-09-26T04:27:50.037Z,8.75
2022-09-26T04:30:19.030Z,8.68
2022-09-26T04:32:46.579Z,8.59
2022-09-26T04:35:14.240Z,8.75
2022-09-26T04:37:41.914Z,8.76
2022-09-26T04:40:11.506Z,8.80
2022-09-26T04:42:41.394Z,8.78
2022-09-26T04:45:11.474Z,8.66
2022-09-26T04:47:39.050Z,8.68
2022-09-26T04:50:07.227Z,8.56
2022-09-26T04:52:34.796Z,8.58
2022-09-26T04:55:04.085Z,8.50
2022-09-26T04:57:31.996Z,8.44
2022-09-26T04:59:59.534Z,8.49
2022-09-26T05:02:30.378Z,8.37
2022-09-26T05:04:59.716Z,8.51
2022-09-26T05:07:27.963Z,8.49
2022-09-26T05:09:55.600Z,8.38
2022-09-26T05:12:23.217Z,8.42
2022-09-26T05:14:51.878Z,8.42
2022-09-26T05:17:21.494Z,8.42
2022-09-26T05:19:50.363Z,8.38
2022-09-26T05:22:17.883Z,8.39
2022-09-26T05:25:03.144Z,8.48
2022-09-26T05:27:31.511Z,8.48
2022-09-26T05:29:59.135Z,8.53
2022-09-26T05:32:28.946Z,8.48
2022-09-26T05:34:57.984Z,8.59
2022-09-26T05:37:25.600Z,8.63
2022-09-26T05:40:10.665Z,8.57
2022-09-26T05:42:38.449Z,8.66
2022-09-26T05:45:07.170Z,8.75
2022-09-26T05:47:36.159Z,8.82
2022-09-26T05:50:09.647Z,8.81
2022-09-26T05:52:37.632Z,8.88
2022-09-26T05:55:07.363Z,8.96
2022-09-26T05:57:35.441Z,9.21
2022-09-26T06:00:03.442Z,9.29
2022-09-26T06:02:31.015Z,9.34
2022-09-26T06:04:58.755Z,9.56
2022-09-26T06:07:27.638Z,9.93
2022-09-26T06:09:55.433Z,10.02
2022-09-26T06:12:23.410Z,9.89
2022-09-26T06:14:53.682Z,9.89
2022-09-26T06:17:21.240Z,9.72
2022-09-26T06:19:48.892Z,9.70
2022-09-26T06:22:16.781Z,9.64
2022-09-26T06:32:57.827Z,9.53
2022-09-26T06:35:25.475Z,9.56
2022-09-26T06:37:53.546Z,9.59
2022-09-26T06:40:21.236Z,9.65
2022-09-26T06:42:48.848Z,9.67
2022-09-26T06:45:16.440Z,9.68
2022-09-26T06:47:44.170Z,9.74
2022-09-26T06:50:13.102Z,9.74
2022-09-26T06:52:40.919Z,9.79
2022-09-26T06:55:10.246Z,9.86
2022-09-26T06:57:40.002Z,9.93
2022-09-26T07:00:10.030Z,10.06
2022-09-26T07:02:37.615Z,10.17
2022-09-26T07:05:06.211Z,10.28
2022-09-26T07:07:41.828Z,10.41
2022-09-26T07:10:10.889Z,10.53
2022-09-26T07:12:44.006Z,10.69
2022-09-26T07:15:13.717Z,10.84
2022-09-26T07:17:41.595Z,10.95
2022-09-26T07:20:11.515Z,11.07
2022-09-26T07:22:40.548Z,11.15
2022-09-26T07:25:09.240Z,11.37
2022-09-26T07:27:37.039Z,11.44
2022-09-26T07:30:06.191Z,11.60
2022-09-26T07:32:33.922Z,11.81
2022-09-26T07:35:03.331Z,12.05
2022-09-26T07:37:30.984Z,12.37
2022-09-26T07:40:01.795Z,13.27
2022-09-26T07:42:29.763Z,13.87
2022-09-26T07:48:02.662Z,15.05
2022-09-26T07:50:31.118Z,15.42
2022-09-26T07:52:58.906Z,15.80
2022-09-26T07:55:28.972Z,16.10
2022-09-26T07:57:57.917Z,16.32
2022-09-26T08:00:26.516Z,16.62
2022-09-26T08:02:54.355Z,16.18
2022-09-26T08:05:21.950Z,16.57
2022-09-26T08:07:50.168Z,17.05
2022-09-26T08:10:20.961Z,16.38
2022-09-26T08:12:50.345Z,16.58
2022-09-26T08:15:18.412Z,16.84
2022-09-26T08:17:45.946Z,16.48
2022-09-26T08:20:13.621Z,16.70
2022-09-26T08:22:41.215Z,16.92
2022-09-26T08:25:10.419Z,17.20
2022-09-26T08:27:38.019Z,16.85
2022-09-26T08:30:08.405Z,16.83
2022-09-26T08:32:37.141Z,16.81
2022-09-26T08:35:05.878Z,16.48
2022-09-26T08:37:33.839Z,16.88
2022-09-26T08:40:01.846Z,16.77
2022-09-26T08:42:41.723Z,17.14
2022-09-26T08:45:49.578Z,17.12
2022-09-26T08:48:33.000Z,17.77
2022-09-26T08:51:11.958Z,17.63
2022-09-26T08:53:45.746Z,17.95
2022-09-26T08:56:20.233Z,18.47
2022-09-26T08:58:52.239Z,17.96
2022-09-26T09:01:27.894Z,17.83
2022-09-26T09:04:02.697Z,18.07
2022-09-26T09:06:30.463Z,17.62
2022-09-26T09:08:59.000Z,17.34
2022-09-26T09:11:47.973Z,17.28
2022-09-26T09:14:42.182Z,18.10
2022-09-26T09:17:21.717Z,17.72
2022-09-26T09:20:01.353Z,17.13
2022-09-26T09:22:46.319Z,16.98
2022-09-26T09:25:19.166Z,16.72
2022-09-26T09:28:08.379Z,16.42
2022-09-26T09:30:42.212Z,16.85
2022-09-26T09:33:15.680Z,17.88
2022-09-26T09:35:45.899Z,17.43
2022-09-26T09:38:18.002Z,17.62
2022-09-26T09:40:52.235Z,17.90
2022-09-26T09:43:27.634Z,18.24
2022-09-26T09:45:59.897Z,17.13
2022-09-26T09:48:29.691Z,16.34
2022-09-26T09:51:11.533Z,15.96
2022-09-26T09:54:00.159Z,15.60
2022-09-26T09:56:36.503Z,15.64
2022-09-26T09:59:25.874Z,15.85
2022-09-26T10:02:10.541Z,15.58
2022-09-26T10:04:46.392Z,15.67
2022-09-26T10:07:14.221Z,15.75
2022-09-26T10:09:44.530Z,15.19
2022-09-26T10:12:16.920Z,15.07
2022-09-26T10:14:53.035Z,14.97
2022-09-26T10:17:23.302Z,15.05
2022-09-26T10:19:52.654Z,15.10
2022-09-26T10:22:28.892Z,15.44
2022-09-26T10:25:02.970Z,15.57
2022-09-26T10:27:37.897Z,15.53
2022-09-26T10:30:25.633Z,15.66
2022-09-26T10:32:57.038Z,15.72
2022-09-26T10:35:29.478Z,15.71
2022-09-26T10:38:02.602Z,15.97
2022-09-26T10:40:46.310Z,16.49
2022-09-26T10:43:28.616Z,17.16
2022-09-26T10:46:03.080Z,17.40
2022-09-26T10:48:51.685Z,16.99
2022-09-26T10:51:26.776Z,17.32
2022-09-26T10:54:03.855Z,16.83
2022-09-26T10:56:38.065Z,17.12
2022-09-26T10:59:09.076Z,16.70
2022-09-26T11:01:42.873Z,16.81
2022-09-26T11:04:38.205Z,16.57
2022-09-26T11:07:09.540Z,16.75
2022-09-26T11:09:38.849Z,16.27
2022-09-26T11:12:25.176Z,16.56
2022-09-26T11:14:56.839Z,16.20
2022-09-26T11:17:43.259Z,16.39
2022-09-26T11:20:17.478Z,16.27
2022-09-26T11:22:53.153Z,16.30
2022-09-26T11:25:26.717Z,16.88
2022-09-26T11:28:02.794Z,16.92
2022-09-26T11:30:33.832Z,16.73
2022-09-26T11:33:05.449Z,16.98
2022-09-26T11:35:46.863Z,16.77
2022-09-26T11:38:38.344Z,17.03
2022-09-26T11:41:45.511Z,16.85
2022-09-26T11:44:42.483Z,16.76
2022-09-26T11:47:36.962Z,17.01
2022-09-26T11:50:23.595Z,17.24
2022-09-26T11:53:05.107Z,17.18
2022-09-26T11:55:45.486Z,17.65
2022-09-26T11:58:22.656Z,17.69
2022-09-26T12:00:58.024Z,17.45
2022-09-26T12:04:03.440Z,17.59
2022-09-26T12:06:36.466Z,17.07
2022-09-26T12:09:14.687Z,16.77
2022-09-26T12:11:49.922Z,16.32
2022-09-26T12:14:39.214Z,15.95
2022-09-26T12:17:15.482Z,15.77
2022-09-26T12:19:50.205Z,14.87
2022-09-26T12:22:29.237Z,14.86
2022-09-26T12:25:11.219Z,14.70
2022-09-26T12:27:48.918Z,14.45
2022-09-26T12:30:21.463Z,14.58
2022-09-26T12:33:05.703Z,14.52
2022-09-26T12:35:45.202Z,14.32
2022-09-26T12:38:24.684Z,14.26
2022-09-26T12:41:07.227Z,14.12
2022-09-26T12:44:07.634Z,14.26
2022-09-26T12:46:51.040Z,14.43
2022-09-26T12:49:37.558Z,14.49
2022-09-26T12:52:21.551Z,14.64
2022-09-26T12:55:10.247Z,14.55
2022-09-26T12:57:48.910Z,14.38
2022-09-26T13:00:22.130Z,14.52
2022-09-26T13:03:06.097Z,14.26
2022-09-26T13:05:50.680Z,14.24
2022-09-26T13:08:27.007Z,14.46
2022-09-26T13:11:06.621Z,14.48
2022-09-26T13:14:09.080Z,14.63
2022-09-26T13:16:53.608Z,14.71
2022-09-26T13:19:28.129Z,14.98
2022-09-26T13:22:00.009Z,15.08
2022-09-26T13:24:35.844Z,15.24
2022-09-26T13:27:13.197Z,15.41
2022-09-26T13:29:46.144Z,15.52
2022-09-26T13:32:22.826Z,15.39
2022-09-26T13:34:55.657Z,15.35
2022-09-26T13:37:37.973Z,15.35
2022-09-26T13:40:24.344Z,15.31
2022-09-26T13:43:05.885Z,15.43
2022-09-26T13:45:46.593Z,15.40
2022-09-26T13:48:24.163Z,15.18
2022-09-26T13:50:56.481Z,15.05
2022-09-26T13:53:32.261Z,14.95
2022-09-26T13:56:31.134Z,14.86
2022-09-26T13:59:04.741Z,14.67
2022-09-26T14:01:33.457Z,14.83
2022-09-26T14:04:21.364Z,14.98
2022-09-26T14:07:24.306Z,15.13
2022-09-26T14:09:56.211Z,15.16
2022-09-26T14:12:52.177Z,15.19
2022-09-26T14:15:24.162Z,14.68
2022-09-26T14:18:15.342Z,14.85
2022-09-26T14:20:59.083Z,14.79
2022-09-26T14:23:41.962Z,14.66
2022-09-26T14:26:12.259Z,14.54
2022-09-26T14:28:47.877Z,14.59
2022-09-26T14:31:43.795Z,14.55
2022-09-26T14:34:36.590Z,14.42
2022-09-26T14:37:25.731Z,14.40
2022-09-26T14:40:01.734Z,14.47
2022-09-26T14:42:39.903Z,14.57
2022-09-26T14:45:18.913Z,14.47
2022-09-26T14:47:54.971Z,14.48
2022-09-26T14:50:35.287Z,14.44
2022-09-26T14:53:14.771Z,14.43
2022-09-26T14:55:55.439Z,14.57
2022-09-26T14:58:32.002Z,14.52
2022-09-26T15:01:04.930Z,14.55
2022-09-26T15:03:34.390Z,14.59
2022-09-26T15:06:04.512Z,14.70
2022-09-26T15:08:39.366Z,14.48
2022-09-26T15:11:08.133Z,14.49
2022-09-26T15:13:38.973Z,14.50
2022-09-26T15:16:20.188Z,14.43
2022-09-26T15:18:53.036Z,14.34
2022-09-26T15:21:27.792Z,14.42
2022-09-26T15:23:57.838Z,14.49
2022-09-26T15:26:28.181Z,14.63
2022-09-26T15:28:57.931Z,14.45
2022-09-26T15:31:37.288Z,14.38
2022-09-26T15:34:12.757Z,14.50
2022-09-26T15:36:42.492Z,14.52
2022-09-26T15:39:42.429Z,14.63
2022-09-26T15:42:43.653Z,14.60
2022-09-26T15:45:26.847Z,14.62
2022-09-26T15:47:56.319Z,14.72
2022-09-26T15:50:28.391Z,14.64
2022-09-26T15:53:01.145Z,14.63
2022-09-26T15:55:34.542Z,14.48
2022-09-26T15:58:07.558Z,14.39
2022-09-26T16:00:38.461Z,14.41
2022-09-26T16:03:28.541Z,14.54
2022-09-26T16:05:56.373Z,14.48
2022-09-26T16:08:26.914Z,14.45
2022-09-26T16:10:57.082Z,14.57
2022-09-26T16:13:29.874Z,14.56
2022-09-26T16:16:03.843Z,14.47
2022-09-26T16:18:39.566Z,14.43
2022-09-26T16:21:19.834Z,14.46
2022-09-26T16:23:49.773Z,14.31
2022-09-26T16:26:29.970Z,14.18
2022-09-26T16:29:00.236Z,14.14
2022-09-26T16:31:30.737Z,14.14
2022-09-26T16:34:01.046Z,14.24
2022-09-26T16:36:30.713Z,14.28
2022-09-26T16:39:01.144Z,14.15
2022-09-26T16:44:31.852Z,14.34
2022-09-26T16:47:05.154Z,14.31
2022-09-26T16:49:45.913Z,14.18
2022-09-26T16:52:30.732Z,14.25
2022-09-26T16:55:00.650Z,14.17
2022-09-26T16:57:30.627Z,14.07
2022-09-26T17:00:20.594Z,14.15
2022-09-26T17:02:48.340Z,14.14
2022-09-26T17:05:18.363Z,14.06
2022-09-26T17:07:47.014Z,14.16
2022-09-26T17:10:15.217Z,14.13
2022-09-26T17:12:43.072Z,14.14
2022-09-26T17:15:20.302Z,14.14
2022-09-26T17:17:48.809Z,14.23
2022-09-26T17:20:16.812Z,14.18
2022-09-26T17:22:44.693Z,14.20
2022-09-26T17:25:13.681Z,14.21
2022-09-26T17:27:43.339Z,14.19
2022-09-26T17:30:17.925Z,14.20
2022-09-26T17:32:49.883Z,14.24
2022-09-26T17:35:23.811Z,14.20
2022-09-26T17:37:52.146Z,14.14
2022-09-26T17:40:24.176Z,14.17
2022-09-26T17:42:55.145Z,14.04
2022-09-26T17:45:29.111Z,13.94
2022-09-26T17:47:58.977Z,13.89
2022-09-26T17:50:29.818Z,13.76
2022-09-26T17:52:58.907Z,13.85
2022-09-26T17:55:27.550Z,13.80
2022-09-26T17:57:55.597Z,13.83
2022-09-26T18:00:25.107Z,13.72
2022-09-26T18:02:56.892Z,13.62
2022-09-26T18:05:26.973Z,13.34
2022-09-26T18:07:59.185Z,13.21
2022-09-26T18:10:30.364Z,12.98
2022-09-26T18:13:00.783Z,12.75
2022-09-26T18:15:31.244Z,12.69
2022-09-26T18:18:00.340Z,12.48
2022-09-26T18:20:36.994Z,12.35
2022-09-26T18:23:07.166Z,12.42
2022-09-26T18:25:37.536Z,12.44
2022-09-26T18:28:08.088Z,12.37
2022-09-26T18:30:38.777Z,12.29
2022-09-26T18:33:07.073Z,12.21
2022-09-26T18:35:34.796Z,12.07
2022-09-26T18:38:02.629Z,12.01
2022-09-26T18:40:30.980Z,11.98
2022-09-26T18:42:59.495Z,11.98
2022-09-26T18:45:29.867Z,11.94
2022-09-26T18:47:59.129Z,11.88
2022-09-26T18:50:33.048Z,11.85
2022-09-26T18:53:00.901Z,11.83
2022-09-26T18:55:46.477Z,11.77
2022-09-26T18:58:27.847Z,11.70
2022-09-26T19:00:58.995Z,11.87
2022-09-26T19:03:30.611Z,11.72
2022-09-26T19:06:04.237Z,11.78
2022-09-26T19:08:35.406Z,11.65
2022-09-26T19:11:10.990Z,11.63
2022-09-26T19:13:38.798Z,11.59
2022-09-26T19:16:07.355Z,11.52
2022-09-26T19:18:37.511Z,11.53
2022-09-26T19:21:08.250Z,11.56
2022-09-26T19:23:37.982Z,11.49
2022-09-26T19:26:07.095Z,11.53
2022-09-26T19:28:37.086Z,11.49
2022-09-26T19:31:05.562Z,11.41
2022-09-26T19:33:33.682Z,11.30
2022-09-26T19:36:03.061Z,11.40
2022-09-26T19:38:30.710Z,11.28
2022-09-26T19:40:58.551Z,11.34
2022-09-26T19:43:26.238Z,11.26
2022-09-26T19:45:55.814Z,11.21
2022-09-26T19:48:24.447Z,11.12
2022-09-26T19:50:52.870Z,11.18
2022-09-26T19:53:24.833Z,11.18
2022-09-26T19:55:52.842Z,11.19
2022-09-26T19:58:22.350Z,11.19
2022-09-26T20:00:52.165Z,11.16
2022-09-26T20:03:22.057Z,11.19
2022-09-26T20:05:50.884Z,11.13
2022-09-26T20:08:21.854Z,11.13
2022-09-26T20:10:51.488Z,11.13
2022-09-26T20:13:19.611Z,11.11
2022-09-26T20:15:48.711Z,11.11
2022-09-26T20:18:20.632Z,11.09
2022-09-26T20:20:52.703Z,11.11
2022-09-26T20:23:22.516Z,11.06
2022-09-26T20:25:53.667Z,11.07
2022-09-26T20:28:21.727Z,11.04
2022-09-26T20:30:52.666Z,10.97
2022-09-26T20:33:22.227Z,11.02
2022-09-26T20:35:53.846Z,10.96
2022-09-26T20:38:27.141Z,10.98
2022-09-26T20:41:01.496Z,11.03
2022-09-26T20:43:33.641Z,10.98
2022-09-26T20:46:04.218Z,10.96
2022-09-26T20:48:34.436Z,10.99
2022-09-26T20:51:02.507Z,10.98
2022-09-26T20:53:30.137Z,10.96
2022-09-26T20:55:59.250Z,10.97
2022-09-26T20:58:26.898Z,11.00
2022-09-26T21:00:54.721Z,11.00
2022-09-26T21:03:25.720Z,10.99
2022-09-26T21:05:53.457Z,11.00
2022-09-26T21:08:26.950Z,10.97
2022-09-26T21:10:56.094Z,11.02
2022-09-26T21:13:25.162Z,10.96
2022-09-26T21:15:53.785Z,11.00
2022-09-26T21:18:25.337Z,10.97
2022-09-26T21:20:53.932Z,10.94
2022-09-26T21:23:22.419Z,10.93
2022-09-26T21:25:50.346Z,10.95
2022-09-26T21:28:26.474Z,10.93
2022-09-26T21:30:55.895Z,10.89
2022-09-26T21:33:24.132Z,10.90
2022-09-26T21:35:52.216Z,10.89
2022-09-26T21:38:21.473Z,10.91
2022-09-26T21:40:53.551Z,10.88
2022-09-26T21:43:23.683Z,10.90
2022-09-26T21:45:52.753Z,10.87
2022-09-26T21:48:20.585Z,10.90
2022-09-26T21:50:57.414Z,10.89
2022-09-26T21:53:31.048Z,10.88
2022-09-26T21:56:07.479Z,10.87
2022-09-26T21:58:39.370Z,10.90
2022-09-26T22:01:08.936Z,10.86
2022-09-26T22:03:37.169Z,10.86
2022-09-26T22:06:07.578Z,10.90
2022-09-26T22:08:35.644Z,10.87
2022-09-26T22:11:03.587Z,10.89
2022-09-26T22:13:33.034Z,10.84
2022-09-26T22:16:05.941Z,10.82
2022-09-26T22:18:36.649Z,10.82
2022-09-26T22:21:04.702Z,10.82
2022-09-26T22:23:33.426Z,10.82
2022-09-26T22:26:01.409Z,10.81
2022-09-26T22:28:29.615Z,10.81
2022-09-26T22:31:01.081Z,10.77
2022-09-26T22:33:28.887Z,10.75
2022-09-26T22:35:58.607Z,10.75
2022-09-26T22:38:26.773Z,10.70
2022-09-26T22:40:58.317Z,10.73
2022-09-26T22:43:26.214Z,10.75
2022-09-26T22:45:54.589Z,10.73
2022-09-26T22:48:22.234Z,10.77
2022-09-26T22:50:50.162Z,10.75
2022-09-26T22:53:19.570Z,10.74
2022-09-26T22:55:54.263Z,10.78
2022-09-26T22:58:22.430Z,10.79
2022-09-26T23:00:51.072Z,10.83
2022-09-26T23:03:18.709Z,10.81
2022-09-26T23:05:49.129Z,10.88
2022-09-26T23:08:17.039Z,10.84
2022-09-26T23:10:51.090Z,10.88
2022-09-26T23:13:19.326Z,10.88
2022-09-26T23:15:47.202Z,10.84
2022-09-26T23:18:15.731Z,10.86
2022-09-26T23:20:44.374Z,10.93
2022-09-26T23:23:13.598Z,10.93
2022-09-26T23:25:47.391Z,10.96
2022-09-26T23:28:17.342Z,10.94
2022-09-26T23:30:45.368Z,10.99
2022-09-26T23:33:13.686Z,11.00
2022-09-26T23:35:41.436Z,11.01
2022-09-26T23:38:09.596Z,11.01
2022-09-26T23:40:38.444Z,10.97
2022-09-26T23:43:06.480Z,10.96
2022-09-26T23:45:37.030Z,11.03
2022-09-26T23:48:05.099Z,11.05
2022-09-26T23:50:32.730Z,11.04
2022-09-26T23:53:04.470Z,11.03
2022-09-26T23:55:34.252Z,11.05
2022-09-26T23:58:01.905Z,11.09
